sensor_id;sensor_type;location;lat;lon;timestamp;P1;durP1;ratioP1;P2;durP2;ratioP2
33738;SDS011;20063;51.730;11.110;2022-11-18T00:02:10;88.00;;;24.10;;
33738;SDS011;20063;51.730;11.110;2022-11-18T00:04:35;29.13;;;20.77;;
33738;SDS011;20063;51.730;11.110;2022-11-18T00:07:01;32.03;;;22.48;;
33738;SDS011;20063;51.730;11.110;2022-11-18T00:09:26;35.97;;;23.65;;
33738;SDS011;20063;51.730;11.110;2022-11-18T00:11:52;38.03;;;23.65;;
33738;SDS011;20063;51.730;11.110;2022-11-18T00:14:36;42.42;;;24.23;;
33738;SDS011;20063;51.730;11.110;2022-11-18T00:17:03;35.40;;;22.73;;
33738;SDS011;20063;51.730;11.110;2022-11-18T00:19:34;60.78;;;23.88;;
33738;SDS011;20063;51.730;11.110;2022-11-18T00:22:01;33.05;;;21.70;;
33738;SDS011;20063;51.730;11.110;2022-11-18T00:24:29;36.58;;;21.83;;
33738;SDS011;20063;51.730;11.110;2022-11-18T00:26:55;36.92;;;22.55;;
33738;SDS011;20063;51.730;11.110;2022-11-18T00:29:21;37.95;;;24.30;;
33738;SDS011;20063;51.730;11.110;2022-11-18T00:31:48;49.70;;;21.45;;
33738;SDS011;20063;51.730;11.110;2022-11-18T00:34:14;34.20;;;21.83;;
33738;SDS011;20063;51.730;11.110;2022-11-18T00:36:41;35.70;;;22.10;;
33738;SDS011;20063;51.730;11.110;2022-11-18T00:39:09;52.97;;;20.75;;
33738;SDS011;20063;51.730;11.110;2022-11-18T00:41:36;33.67;;;21.20;;
33738;SDS011;20063;51.730;11.110;2022-11-18T00:44:20;45.75;;;22.48;;
33738;SDS011;20063;51.730;11.110;2022-11-18T00:46:45;40.33;;;24.35;;
33738;SDS011;20063;51.730;11.110;2022-11-18T00:49:11;60.90;;;23.13;;
33738;SDS011;20063;51.730;11.110;2022-11-18T00:51:37;40.65;;;23.52;;
33738;SDS011;20063;51.730;11.110;2022-11-18T00:54:04;38.42;;;24.27;;
33738;SDS011;20063;51.730;11.110;2022-11-18T00:56:29;35.00;;;22.65;;
33738;SDS011;20063;51.730;11.110;2022-11-18T00:58:55;40.55;;;24.83;;
33738;SDS011;20063;51.730;11.110;2022-11-18T01:01:21;40.10;;;25.45;;
33738;SDS011;20063;51.730;11.110;2022-11-18T01:03:47;45.47;;;27.10;;
33738;SDS011;20063;51.730;11.110;2022-11-18T01:06:12;40.78;;;25.30;;
33738;SDS011;20063;51.730;11.110;2022-11-18T01:08:38;40.03;;;25.10;;
33738;SDS011;20063;51.730;11.110;2022-11-18T01:11:04;42.17;;;25.75;;
33738;SDS011;20063;51.730;11.110;2022-11-18T01:13:48;38.20;;;23.67;;
33738;SDS011;20063;51.730;11.110;2022-11-18T01:16:22;40.45;;;25.65;;
33738;SDS011;20063;51.730;11.110;2022-11-18T01:18:49;34.65;;;22.90;;
33738;SDS011;20063;51.730;11.110;2022-11-18T01:21:15;43.30;;;24.35;;
33738;SDS011;20063;51.730;11.110;2022-11-18T01:23:41;40.83;;;24.77;;
33738;SDS011;20063;51.730;11.110;2022-11-18T01:26:08;47.88;;;25.67;;
33738;SDS011;20063;51.730;11.110;2022-11-18T01:28:35;38.63;;;23.85;;
33738;SDS011;20063;51.730;11.110;2022-11-18T01:31:02;47.15;;;28.15;;
33738;SDS011;20063;51.730;11.110;2022-11-18T01:33:39;54.30;;;30.58;;
33738;SDS011;20063;51.730;11.110;2022-11-18T01:36:13;64.57;;;33.10;;
33738;SDS011;20063;51.730;11.110;2022-11-18T01:41:06;49.20;;;28.88;;
33738;SDS011;20063;51.730;11.110;2022-11-18T01:43:46;54.78;;;29.60;;
33738;SDS011;20063;51.730;11.110;2022-11-18T01:46:14;50.85;;;28.70;;
33738;SDS011;20063;51.730;11.110;2022-11-18T01:48:40;55.50;;;28.77;;
33738;SDS011;20063;51.730;11.110;2022-11-18T01:51:08;50.28;;;29.13;;
33738;SDS011;20063;51.730;11.110;2022-11-18T01:53:41;45.30;;;27.30;;
33738;SDS011;20063;51.730;11.110;2022-11-18T01:56:14;40.97;;;25.58;;
33738;SDS011;20063;51.730;11.110;2022-11-18T01:58:53;415.70;;;29.88;;
33738;SDS011;20063;51.730;11.110;2022-11-18T02:01:21;39.83;;;23.63;;
33738;SDS011;20063;51.730;11.110;2022-11-18T02:03:47;32.83;;;20.83;;
33738;SDS011;20063;51.730;11.110;2022-11-18T02:06:14;47.13;;;24.20;;
33738;SDS011;20063;51.730;11.110;2022-11-18T02:08:40;37.30;;;22.33;;
33738;SDS011;20063;51.730;11.110;2022-11-18T02:11:11;39.35;;;23.17;;
33738;SDS011;20063;51.730;11.110;2022-11-18T02:13:58;38.42;;;23.25;;
33738;SDS011;20063;51.730;11.110;2022-11-18T02:16:31;352.17;;;29.00;;
33738;SDS011;20063;51.730;11.110;2022-11-18T02:21:59;41.75;;;24.83;;
33738;SDS011;20063;51.730;11.110;2022-11-18T02:24:40;215.13;;;29.05;;
33738;SDS011;20063;51.730;11.110;2022-11-18T02:30:21;39.85;;;25.08;;
33738;SDS011;20063;51.730;11.110;2022-11-18T02:33:22;35.30;;;23.27;;
33738;SDS011;20063;51.730;11.110;2022-11-18T02:35:49;36.05;;;23.08;;
33738;SDS011;20063;51.730;11.110;2022-11-18T02:38:23;34.83;;;22.95;;
33738;SDS011;20063;51.730;11.110;2022-11-18T02:40:55;31.33;;;22.23;;
33738;SDS011;20063;51.730;11.110;2022-11-18T02:43:26;28.77;;;20.70;;
33738;SDS011;20063;51.730;11.110;2022-11-18T02:45:58;288.45;;;24.83;;
33738;SDS011;20063;51.730;11.110;2022-11-18T02:48:26;28.17;;;19.42;;
33738;SDS011;20063;51.730;11.110;2022-11-18T02:51:03;166.52;;;23.25;;
33738;SDS011;20063;51.730;11.110;2022-11-18T02:53:31;61.63;;;22.35;;
33738;SDS011;20063;51.730;11.110;2022-11-18T02:56:02;142.93;;;22.90;;
33738;SDS011;20063;51.730;11.110;2022-11-18T02:58:28;28.25;;;19.90;;
33738;SDS011;20063;51.730;11.110;2022-11-18T03:00:58;34.83;;;21.10;;
33738;SDS011;20063;51.730;11.110;2022-11-18T03:03:29;82.82;;;21.38;;
33738;SDS011;20063;51.730;11.110;2022-11-18T03:08:44;36.67;;;21.38;;
33738;SDS011;20063;51.730;11.110;2022-11-18T03:11:15;54.38;;;21.35;;
33738;SDS011;20063;51.730;11.110;2022-11-18T03:13:50;33.25;;;22.50;;
33738;SDS011;20063;51.730;11.110;2022-11-18T03:16:22;40.35;;;24.67;;
33738;SDS011;20063;51.730;11.110;2022-11-18T03:22:16;40.95;;;25.92;;
33738;SDS011;20063;51.730;11.110;2022-11-18T03:24:51;51.40;;;27.13;;
33738;SDS011;20063;51.730;11.110;2022-11-18T03:27:39;69.63;;;27.65;;
33738;SDS011;20063;51.730;11.110;2022-11-18T03:30:26;46.35;;;28.52;;
33738;SDS011;20063;51.730;11.110;2022-11-18T03:33:05;50.10;;;28.23;;
33738;SDS011;20063;51.730;11.110;2022-11-18T03:35:36;118.32;;;30.17;;
33738;SDS011;20063;51.730;11.110;2022-11-18T03:38:06;47.80;;;28.67;;
33738;SDS011;20063;51.730;11.110;2022-11-18T03:40:36;45.70;;;28.73;;
33738;SDS011;20063;51.730;11.110;2022-11-18T03:43:08;48.20;;;29.48;;
33738;SDS011;20063;51.730;11.110;2022-11-18T03:45:38;79.03;;;30.13;;
33738;SDS011;20063;51.730;11.110;2022-11-18T03:48:24;52.05;;;30.77;;
33738;SDS011;20063;51.730;11.110;2022-11-18T03:53:24;64.20;;;31.23;;
33738;SDS011;20063;51.730;11.110;2022-11-18T03:55:53;62.10;;;32.20;;
33738;SDS011;20063;51.730;11.110;2022-11-18T03:58:30;51.72;;;31.73;;
33738;SDS011;20063;51.730;11.110;2022-11-18T04:01:10;71.38;;;35.42;;
33738;SDS011;20063;51.730;11.110;2022-11-18T04:03:39;49.80;;;31.95;;
33738;SDS011;20063;51.730;11.110;2022-11-18T04:06:08;57.25;;;33.53;;
33738;SDS011;20063;51.730;11.110;2022-11-18T04:08:55;70.35;;;29.25;;
33738;SDS011;20063;51.730;11.110;2022-11-18T04:11:26;50.50;;;30.63;;
33738;SDS011;20063;51.730;11.110;2022-11-18T04:14:14;93.70;;;31.67;;
33738;SDS011;20063;51.730;11.110;2022-11-18T04:16:43;53.95;;;31.92;;
33738;SDS011;20063;51.730;11.110;2022-11-18T04:19:13;54.38;;;33.95;;
33738;SDS011;20063;51.730;11.110;2022-11-18T04:21:39;60.60;;;36.90;;
33738;SDS011;20063;51.730;11.110;2022-11-18T04:24:05;63.08;;;35.08;;
33738;SDS011;20063;51.730;11.110;2022-11-18T04:26:36;70.57;;;34.83;;
33738;SDS011;20063;51.730;11.110;2022-11-18T04:29:02;54.78;;;34.40;;
33738;SDS011;20063;51.730;11.110;2022-11-18T04:31:28;62.60;;;36.58;;
33738;SDS011;20063;51.730;11.110;2022-11-18T04:33:54;119.13;;;37.67;;
33738;SDS011;20063;51.730;11.110;2022-11-18T04:36:20;61.28;;;36.00;;
33738;SDS011;20063;51.730;11.110;2022-11-18T04:38:45;69.07;;;35.75;;
33738;SDS011;20063;51.730;11.110;2022-11-18T04:41:11;57.90;;;33.60;;
33738;SDS011;20063;51.730;11.110;2022-11-18T04:43:37;124.55;;;37.63;;
33738;SDS011;20063;51.730;11.110;2022-11-18T04:46:02;58.28;;;34.65;;
33738;SDS011;20063;51.730;11.110;2022-11-18T04:48:28;74.10;;;35.25;;
33738;SDS011;20063;51.730;11.110;2022-11-18T04:50:57;54.17;;;32.75;;
33738;SDS011;20063;51.730;11.110;2022-11-18T04:53:22;53.83;;;32.75;;
33738;SDS011;20063;51.730;11.110;2022-11-18T04:55:48;56.72;;;33.10;;
33738;SDS011;20063;51.730;11.110;2022-11-18T04:58:13;57.28;;;33.20;;
33738;SDS011;20063;51.730;11.110;2022-11-18T05:00:39;54.00;;;30.45;;
33738;SDS011;20063;51.730;11.110;2022-11-18T05:03:05;62.50;;;33.70;;
33738;SDS011;20063;51.730;11.110;2022-11-18T05:05:32;51.65;;;30.17;;
33738;SDS011;20063;51.730;11.110;2022-11-18T05:07:58;66.43;;;35.03;;
33738;SDS011;20063;51.730;11.110;2022-11-18T05:10:24;57.83;;;32.15;;
33738;SDS011;20063;51.730;11.110;2022-11-18T05:12:49;63.47;;;33.05;;
33738;SDS011;20063;51.730;11.110;2022-11-18T05:15:17;102.25;;;33.08;;
33738;SDS011;20063;51.730;11.110;2022-11-18T05:17:47;72.20;;;32.45;;
33738;SDS011;20063;51.730;11.110;2022-11-18T05:20:13;61.20;;;32.92;;
33738;SDS011;20063;51.730;11.110;2022-11-18T05:22:39;83.35;;;35.70;;
33738;SDS011;20063;51.730;11.110;2022-11-18T05:25:05;64.80;;;34.28;;
33738;SDS011;20063;51.730;11.110;2022-11-18T05:27:31;68.85;;;35.72;;
33738;SDS011;20063;51.730;11.110;2022-11-18T05:29:57;78.72;;;33.85;;
33738;SDS011;20063;51.730;11.110;2022-11-18T05:32:23;82.30;;;35.85;;
33738;SDS011;20063;51.730;11.110;2022-11-18T05:34:49;71.57;;;37.58;;
33738;SDS011;20063;51.730;11.110;2022-11-18T05:37:14;93.32;;;34.17;;
33738;SDS011;20063;51.730;11.110;2022-11-18T05:39:40;67.97;;;36.22;;
33738;SDS011;20063;51.730;11.110;2022-11-18T05:42:06;70.10;;;36.17;;
33738;SDS011;20063;51.730;11.110;2022-11-18T05:44:50;61.92;;;33.30;;
33738;SDS011;20063;51.730;11.110;2022-11-18T05:47:16;58.45;;;33.75;;
33738;SDS011;20063;51.730;11.110;2022-11-18T05:49:42;64.78;;;34.65;;
33738;SDS011;20063;51.730;11.110;2022-11-18T05:52:09;93.80;;;35.35;;
33738;SDS011;20063;51.730;11.110;2022-11-18T05:54:38;66.65;;;37.80;;
33738;SDS011;20063;51.730;11.110;2022-11-18T05:57:14;90.82;;;35.72;;
33738;SDS011;20063;51.730;11.110;2022-11-18T05:59:39;62.28;;;35.35;;
33738;SDS011;20063;51.730;11.110;2022-11-18T06:02:06;68.53;;;35.75;;
33738;SDS011;20063;51.730;11.110;2022-11-18T06:04:47;65.78;;;36.17;;
33738;SDS011;20063;51.730;11.110;2022-11-18T06:07:17;59.00;;;34.88;;
33738;SDS011;20063;51.730;11.110;2022-11-18T06:09:47;66.90;;;33.03;;
33738;SDS011;20063;51.730;11.110;2022-11-18T06:12:16;58.83;;;33.17;;
33738;SDS011;20063;51.730;11.110;2022-11-18T06:14:47;83.85;;;41.42;;
33738;SDS011;20063;51.730;11.110;2022-11-18T06:17:38;74.45;;;38.30;;
33738;SDS011;20063;51.730;11.110;2022-11-18T06:20:11;89.38;;;40.85;;
33738;SDS011;20063;51.730;11.110;2022-11-18T06:22:37;303.00;;;39.90;;
33738;SDS011;20063;51.730;11.110;2022-11-18T06:25:03;62.13;;;34.33;;
33738;SDS011;20063;51.730;11.110;2022-11-18T06:27:29;58.63;;;33.80;;
33738;SDS011;20063;51.730;11.110;2022-11-18T06:29:55;62.83;;;34.83;;
33738;SDS011;20063;51.730;11.110;2022-11-18T06:32:21;94.03;;;36.70;;
33738;SDS011;20063;51.730;11.110;2022-11-18T06:34:47;95.10;;;30.55;;
33738;SDS011;20063;51.730;11.110;2022-11-18T06:37:13;63.13;;;34.25;;
33738;SDS011;20063;51.730;11.110;2022-11-18T06:39:40;60.97;;;32.47;;
33738;SDS011;20063;51.730;11.110;2022-11-18T06:42:06;162.05;;;37.35;;
33738;SDS011;20063;51.730;11.110;2022-11-18T06:44:32;95.18;;;35.22;;
33738;SDS011;20063;51.730;11.110;2022-11-18T06:46:57;57.40;;;32.90;;
33738;SDS011;20063;51.730;11.110;2022-11-18T06:49:23;53.53;;;34.15;;
33738;SDS011;20063;51.730;11.110;2022-11-18T06:51:50;57.78;;;32.75;;
33738;SDS011;20063;51.730;11.110;2022-11-18T06:54:16;55.40;;;33.20;;
33738;SDS011;20063;51.730;11.110;2022-11-18T06:56:42;61.10;;;33.58;;
33738;SDS011;20063;51.730;11.110;2022-11-18T06:59:07;63.30;;;33.33;;
33738;SDS011;20063;51.730;11.110;2022-11-18T07:01:34;63.25;;;35.22;;
33738;SDS011;20063;51.730;11.110;2022-11-18T07:04:03;110.25;;;39.35;;
33738;SDS011;20063;51.730;11.110;2022-11-18T07:06:30;88.90;;;39.83;;
33738;SDS011;20063;51.730;11.110;2022-11-18T07:08:58;65.30;;;36.80;;
33738;SDS011;20063;51.730;11.110;2022-11-18T07:11:26;68.90;;;35.85;;
33738;SDS011;20063;51.730;11.110;2022-11-18T07:13:52;68.78;;;35.13;;
33738;SDS011;20063;51.730;11.110;2022-11-18T07:16:27;75.70;;;38.60;;
33738;SDS011;20063;51.730;11.110;2022-11-18T07:18:54;62.45;;;35.20;;
33738;SDS011;20063;51.730;11.110;2022-11-18T07:21:21;108.75;;;38.13;;
33738;SDS011;20063;51.730;11.110;2022-11-18T07:23:48;67.88;;;37.45;;
33738;SDS011;20063;51.730;11.110;2022-11-18T07:26:14;73.15;;;38.15;;
33738;SDS011;20063;51.730;11.110;2022-11-18T07:28:40;75.47;;;39.03;;
33738;SDS011;20063;51.730;11.110;2022-11-18T07:31:07;97.38;;;43.15;;
33738;SDS011;20063;51.730;11.110;2022-11-18T07:33:34;77.20;;;42.55;;
33738;SDS011;20063;51.730;11.110;2022-11-18T07:36:13;70.55;;;39.22;;
33738;SDS011;20063;51.730;11.110;2022-11-18T07:38:49;103.20;;;40.00;;
33738;SDS011;20063;51.730;11.110;2022-11-18T07:41:19;86.25;;;43.20;;
33738;SDS011;20063;51.730;11.110;2022-11-18T07:43:46;85.78;;;44.25;;
33738;SDS011;20063;51.730;11.110;2022-11-18T07:48:43;79.72;;;41.80;;
33738;SDS011;20063;51.730;11.110;2022-11-18T07:51:10;118.40;;;41.55;;
33738;SDS011;20063;51.730;11.110;2022-11-18T07:53:36;85.38;;;40.35;;
33738;SDS011;20063;51.730;11.110;2022-11-18T07:56:03;85.25;;;41.63;;
33738;SDS011;20063;51.730;11.110;2022-11-18T07:58:29;93.45;;;45.00;;
33738;SDS011;20063;51.730;11.110;2022-11-18T08:00:55;99.53;;;44.67;;
33738;SDS011;20063;51.730;11.110;2022-11-18T08:03:25;81.97;;;42.38;;
33738;SDS011;20063;51.730;11.110;2022-11-18T08:05:51;73.80;;;40.17;;
33738;SDS011;20063;51.730;11.110;2022-11-18T08:08:18;124.45;;;45.72;;
33738;SDS011;20063;51.730;11.110;2022-11-18T08:10:43;146.90;;;46.25;;
33738;SDS011;20063;51.730;11.110;2022-11-18T08:13:12;91.25;;;43.42;;
33738;SDS011;20063;51.730;11.110;2022-11-18T08:15:41;98.05;;;43.60;;
33738;SDS011;20063;51.730;11.110;2022-11-18T08:18:07;76.18;;;40.63;;
33738;SDS011;20063;51.730;11.110;2022-11-18T08:20:36;72.00;;;38.15;;
33738;SDS011;20063;51.730;11.110;2022-11-18T08:23:01;106.47;;;36.55;;
33738;SDS011;20063;51.730;11.110;2022-11-18T08:25:27;67.00;;;37.30;;
33738;SDS011;20063;51.730;11.110;2022-11-18T08:27:53;180.43;;;40.67;;
33738;SDS011;20063;51.730;11.110;2022-11-18T08:30:19;96.45;;;33.70;;
33738;SDS011;20063;51.730;11.110;2022-11-18T08:32:44;66.80;;;35.40;;
33738;SDS011;20063;51.730;11.110;2022-11-18T08:35:10;155.63;;;37.22;;
33738;SDS011;20063;51.730;11.110;2022-11-18T08:37:36;62.92;;;34.45;;
33738;SDS011;20063;51.730;11.110;2022-11-18T08:40:01;68.30;;;37.58;;
33738;SDS011;20063;51.730;11.110;2022-11-18T08:42:27;74.95;;;36.67;;
33738;SDS011;20063;51.730;11.110;2022-11-18T08:44:53;76.32;;;42.22;;
33738;SDS011;20063;51.730;11.110;2022-11-18T08:47:18;72.53;;;39.80;;
33738;SDS011;20063;51.730;11.110;2022-11-18T08:49:44;77.07;;;42.05;;
33738;SDS011;20063;51.730;11.110;2022-11-18T08:52:09;82.95;;;42.08;;
33738;SDS011;20063;51.730;11.110;2022-11-18T08:54:35;263.83;;;44.92;;
33738;SDS011;20063;51.730;11.110;2022-11-18T08:57:01;94.97;;;46.22;;
33738;SDS011;20063;51.730;11.110;2022-11-18T08:59:26;174.40;;;44.08;;
33738;SDS011;20063;51.730;11.110;2022-11-18T09:01:52;232.48;;;48.33;;
33738;SDS011;20063;51.730;11.110;2022-11-18T09:04:18;79.75;;;42.10;;
33738;SDS011;20063;51.730;11.110;2022-11-18T09:06:45;87.28;;;47.30;;
33738;SDS011;20063;51.730;11.110;2022-11-18T09:09:10;122.22;;;46.90;;
33738;SDS011;20063;51.730;11.110;2022-11-18T09:11:37;93.40;;;44.63;;
33738;SDS011;20063;51.730;11.110;2022-11-18T09:14:03;99.15;;;48.85;;
33738;SDS011;20063;51.730;11.110;2022-11-18T09:16:31;90.63;;;47.35;;
33738;SDS011;20063;51.730;11.110;2022-11-18T09:18:58;100.47;;;51.28;;
33738;SDS011;20063;51.730;11.110;2022-11-18T09:21:25;124.15;;;53.05;;
33738;SDS011;20063;51.730;11.110;2022-11-18T09:23:51;99.07;;;49.45;;
33738;SDS011;20063;51.730;11.110;2022-11-18T09:26:17;136.52;;;55.33;;
33738;SDS011;20063;51.730;11.110;2022-11-18T09:28:48;108.75;;;52.65;;
33738;SDS011;20063;51.730;11.110;2022-11-18T09:31:15;103.55;;;50.78;;
33738;SDS011;20063;51.730;11.110;2022-11-18T09:33:42;124.55;;;45.47;;
33738;SDS011;20063;51.730;11.110;2022-11-18T09:36:26;125.50;;;52.58;;
33738;SDS011;20063;51.730;11.110;2022-11-18T09:38:51;99.43;;;48.38;;
33738;SDS011;20063;51.730;11.110;2022-11-18T09:49:29;114.80;;;45.53;;
33738;SDS011;20063;51.730;11.110;2022-11-18T09:52:00;103.93;;;45.83;;
33738;SDS011;20063;51.730;11.110;2022-11-18T09:54:34;102.68;;;46.50;;
33738;SDS011;20063;51.730;11.110;2022-11-18T09:57:02;89.25;;;45.10;;
33738;SDS011;20063;51.730;11.110;2022-11-18T09:59:48;111.78;;;45.92;;
33738;SDS011;20063;51.730;11.110;2022-11-18T10:05:28;93.65;;;44.90;;
33738;SDS011;20063;51.730;11.110;2022-11-18T10:10:37;104.15;;;47.17;;
33738;SDS011;20063;51.730;11.110;2022-11-18T10:24:04;70.80;;;34.45;;
33738;SDS011;20063;51.730;11.110;2022-11-18T10:26:34;66.20;;;32.40;;
33738;SDS011;20063;51.730;11.110;2022-11-18T10:29:02;72.00;;;36.38;;
33738;SDS011;20063;51.730;11.110;2022-11-18T10:31:31;69.82;;;34.80;;
33738;SDS011;20063;51.730;11.110;2022-11-18T10:34:00;64.82;;;32.22;;
33738;SDS011;20063;51.730;11.110;2022-11-18T10:36:31;55.35;;;28.30;;
33738;SDS011;20063;51.730;11.110;2022-11-18T10:39:06;57.55;;;27.98;;
33738;SDS011;20063;51.730;11.110;2022-11-18T10:41:37;53.50;;;28.33;;
33738;SDS011;20063;51.730;11.110;2022-11-18T10:49:49;43.90;;;25.42;;
33738;SDS011;20063;51.730;11.110;2022-11-18T10:52:16;48.67;;;24.45;;
33738;SDS011;20063;51.730;11.110;2022-11-18T10:54:42;42.47;;;22.60;;
33738;SDS011;20063;51.730;11.110;2022-11-18T11:00:01;52.15;;;23.42;;
33738;SDS011;20063;51.730;11.110;2022-11-18T11:04:58;40.25;;;22.70;;
33738;SDS011;20063;51.730;11.110;2022-11-18T11:12:32;47.22;;;26.33;;
33738;SDS011;20063;51.730;11.110;2022-11-18T11:15:08;49.42;;;26.33;;
33738;SDS011;20063;51.730;11.110;2022-11-18T11:17:41;50.50;;;25.58;;
33738;SDS011;20063;51.730;11.110;2022-11-18T11:20:33;45.80;;;24.40;;
33738;SDS011;20063;51.730;11.110;2022-11-18T11:23:00;38.25;;;21.42;;
33738;SDS011;20063;51.730;11.110;2022-11-18T11:25:32;39.92;;;21.02;;
33738;SDS011;20063;51.730;11.110;2022-11-18T11:28:14;34.63;;;20.77;;
33738;SDS011;20063;51.730;11.110;2022-11-18T11:30:45;35.70;;;19.90;;
33738;SDS011;20063;51.730;11.110;2022-11-18T11:33:25;30.73;;;18.23;;
33738;SDS011;20063;51.730;11.110;2022-11-18T11:39:06;30.48;;;18.35;;
33738;SDS011;20063;51.730;11.110;2022-11-18T11:41:55;37.05;;;18.50;;
33738;SDS011;20063;51.730;11.110;2022-11-18T11:50:37;40.35;;;22.30;;
33738;SDS011;20063;51.730;11.110;2022-11-18T12:01:58;37.45;;;19.35;;
33738;SDS011;20063;51.730;11.110;2022-11-18T12:07:32;34.00;;;19.55;;
33738;SDS011;20063;51.730;11.110;2022-11-18T12:20:48;36.33;;;20.70;;
33738;SDS011;20063;51.730;11.110;2022-11-18T12:25:52;31.15;;;17.88;;
33738;SDS011;20063;51.730;11.110;2022-11-18T12:28:30;32.25;;;18.48;;
33738;SDS011;20063;51.730;11.110;2022-11-18T12:33:45;38.55;;;19.38;;
33738;SDS011;20063;51.730;11.110;2022-11-18T12:38:52;30.13;;;18.77;;
33738;SDS011;20063;51.730;11.110;2022-11-18T12:44:22;29.15;;;18.65;;
33738;SDS011;20063;51.730;11.110;2022-11-18T12:46:48;31.02;;;18.85;;
33738;SDS011;20063;51.730;11.110;2022-11-18T12:51:58;34.45;;;22.42;;
33738;SDS011;20063;51.730;11.110;2022-11-18T12:54:26;35.75;;;22.85;;
33738;SDS011;20063;51.730;11.110;2022-11-18T12:56:54;34.35;;;22.50;;
33738;SDS011;20063;51.730;11.110;2022-11-18T12:59:27;35.75;;;22.17;;
33738;SDS011;20063;51.730;11.110;2022-11-18T13:04:36;32.97;;;21.65;;
33738;SDS011;20063;51.730;11.110;2022-11-18T13:07:03;37.95;;;22.85;;
33738;SDS011;20063;51.730;11.110;2022-11-18T13:09:54;33.80;;;21.60;;
33738;SDS011;20063;51.730;11.110;2022-11-18T13:12:20;36.58;;;21.08;;
33738;SDS011;20063;51.730;11.110;2022-11-18T13:14:50;39.92;;;23.50;;
33738;SDS011;20063;51.730;11.110;2022-11-18T13:17:35;32.85;;;21.38;;
33738;SDS011;20063;51.730;11.110;2022-11-18T13:25:53;38.47;;;23.45;;
33738;SDS011;20063;51.730;11.110;2022-11-18T13:28:52;42.42;;;24.58;;
33738;SDS011;20063;51.730;11.110;2022-11-18T13:31:27;38.15;;;23.95;;
33738;SDS011;20063;51.730;11.110;2022-11-18T13:33:54;42.35;;;26.17;;
33738;SDS011;20063;51.730;11.110;2022-11-18T13:36:32;40.15;;;24.33;;
33738;SDS011;20063;51.730;11.110;2022-11-18T13:39:04;45.50;;;27.33;;
33738;SDS011;20063;51.730;11.110;2022-11-18T13:41:32;49.10;;;27.13;;
33738;SDS011;20063;51.730;11.110;2022-11-18T13:44:09;48.03;;;28.13;;
33738;SDS011;20063;51.730;11.110;2022-11-18T13:46:35;45.10;;;27.10;;
33738;SDS011;20063;51.730;11.110;2022-11-18T13:49:02;52.03;;;30.73;;
33738;SDS011;20063;51.730;11.110;2022-11-18T13:51:28;50.60;;;29.52;;
33738;SDS011;20063;51.730;11.110;2022-11-18T13:53:54;58.33;;;32.45;;
33738;SDS011;20063;51.730;11.110;2022-11-18T13:56:26;60.38;;;33.88;;
33738;SDS011;20063;51.730;11.110;2022-11-18T13:58:55;56.03;;;33.03;;
33738;SDS011;20063;51.730;11.110;2022-11-18T14:01:28;56.65;;;32.60;;
33738;SDS011;20063;51.730;11.110;2022-11-18T14:04:02;60.92;;;34.50;;
33738;SDS011;20063;51.730;11.110;2022-11-18T14:06:32;55.72;;;31.83;;
33738;SDS011;20063;51.730;11.110;2022-11-18T14:09:33;56.67;;;31.58;;
33738;SDS011;20063;51.730;11.110;2022-11-18T14:12:03;53.13;;;31.85;;
33738;SDS011;20063;51.730;11.110;2022-11-18T14:14:39;55.00;;;31.83;;
33738;SDS011;20063;51.730;11.110;2022-11-18T14:17:22;55.03;;;30.88;;
33738;SDS011;20063;51.730;11.110;2022-11-18T14:19:55;52.85;;;27.95;;
33738;SDS011;20063;51.730;11.110;2022-11-18T14:22:23;50.10;;;30.95;;
33738;SDS011;20063;51.730;11.110;2022-11-18T14:27:42;66.18;;;35.58;;
33738;SDS011;20063;51.730;11.110;2022-11-18T14:30:30;63.28;;;36.65;;
33738;SDS011;20063;51.730;11.110;2022-11-18T14:35:59;67.70;;;39.80;;
33738;SDS011;20063;51.730;11.110;2022-11-18T14:38:49;75.88;;;42.65;;
33738;SDS011;20063;51.730;11.110;2022-11-18T14:41:18;75.57;;;41.85;;
33738;SDS011;20063;51.730;11.110;2022-11-18T14:44:03;79.25;;;44.45;;
33738;SDS011;20063;51.730;11.110;2022-11-18T14:46:32;79.70;;;45.95;;
33738;SDS011;20063;51.730;11.110;2022-11-18T14:49:02;78.13;;;42.45;;
33738;SDS011;20063;51.730;11.110;2022-11-18T14:51:28;85.80;;;46.75;;
33738;SDS011;20063;51.730;11.110;2022-11-18T14:53:54;85.22;;;46.80;;
33738;SDS011;20063;51.730;11.110;2022-11-18T14:56:22;86.05;;;46.45;;
33738;SDS011;20063;51.730;11.110;2022-11-18T14:58:50;89.35;;;46.78;;
33738;SDS011;20063;51.730;11.110;2022-11-18T15:01:16;86.93;;;46.38;;
33738;SDS011;20063;51.730;11.110;2022-11-18T15:03:42;85.72;;;47.05;;
33738;SDS011;20063;51.730;11.110;2022-11-18T15:06:10;90.65;;;45.35;;
33738;SDS011;20063;51.730;11.110;2022-11-18T15:08:37;81.07;;;43.75;;
33738;SDS011;20063;51.730;11.110;2022-11-18T15:11:03;100.55;;;50.25;;
33738;SDS011;20063;51.730;11.110;2022-11-18T15:13:28;102.85;;;54.95;;
33738;SDS011;20063;51.730;11.110;2022-11-18T15:15:56;81.60;;;46.47;;
33738;SDS011;20063;51.730;11.110;2022-11-18T15:18:21;83.90;;;46.25;;
33738;SDS011;20063;51.730;11.110;2022-11-18T15:20:49;80.82;;;46.58;;
33738;SDS011;20063;51.730;11.110;2022-11-18T15:23:15;77.18;;;42.25;;
33738;SDS011;20063;51.730;11.110;2022-11-18T15:25:41;71.45;;;40.85;;
33738;SDS011;20063;51.730;11.110;2022-11-18T15:28:08;83.93;;;45.95;;
33738;SDS011;20063;51.730;11.110;2022-11-18T15:30:34;84.82;;;45.38;;
33738;SDS011;20063;51.730;11.110;2022-11-18T15:33:00;78.22;;;45.13;;
33738;SDS011;20063;51.730;11.110;2022-11-18T15:35:25;85.82;;;46.50;;
33738;SDS011;20063;51.730;11.110;2022-11-18T15:37:51;75.22;;;43.50;;
33738;SDS011;20063;51.730;11.110;2022-11-18T15:40:17;83.15;;;44.80;;
33738;SDS011;20063;51.730;11.110;2022-11-18T15:42:42;89.10;;;47.15;;
33738;SDS011;20063;51.730;11.110;2022-11-18T15:45:08;80.50;;;45.72;;
33738;SDS011;20063;51.730;11.110;2022-11-18T15:47:34;78.18;;;42.63;;
33738;SDS011;20063;51.730;11.110;2022-11-18T15:49:59;78.75;;;44.90;;
33738;SDS011;20063;51.730;11.110;2022-11-18T15:52:25;77.40;;;43.63;;
33738;SDS011;20063;51.730;11.110;2022-11-18T15:54:52;90.15;;;46.17;;
33738;SDS011;20063;51.730;11.110;2022-11-18T15:57:18;80.03;;;45.35;;
33738;SDS011;20063;51.730;11.110;2022-11-18T15:59:45;74.68;;;42.50;;
33738;SDS011;20063;51.730;11.110;2022-11-18T16:02:11;75.53;;;43.05;;
33738;SDS011;20063;51.730;11.110;2022-11-18T16:04:37;81.50;;;44.03;;
33738;SDS011;20063;51.730;11.110;2022-11-18T16:07:03;74.00;;;44.10;;
33738;SDS011;20063;51.730;11.110;2022-11-18T16:09:29;76.72;;;43.00;;
33738;SDS011;20063;51.730;11.110;2022-11-18T16:12:15;78.80;;;43.55;;
33738;SDS011;20063;51.730;11.110;2022-11-18T16:14:59;75.28;;;43.10;;
33738;SDS011;20063;51.730;11.110;2022-11-18T16:17:43;85.07;;;45.08;;
33738;SDS011;20063;51.730;11.110;2022-11-18T16:20:09;81.03;;;45.47;;
33738;SDS011;20063;51.730;11.110;2022-11-18T16:22:35;83.25;;;46.45;;
33738;SDS011;20063;51.730;11.110;2022-11-18T16:25:00;77.80;;;45.13;;